createdAt,value
2017-09-18T00:01:53.077Z,24.02
2017-09-18T00:04:19.292Z,23.96
2017-09-18T00:06:45.529Z,23.83
2017-09-18T00:09:11.757Z,23.75
2017-09-18T00:11:38.004Z,23.79
2017-09-18T00:14:04.234Z,23.79
2017-09-18T00:16:30.451Z,23.79
2017-09-18T00:18:56.674Z,23.87
2017-09-18T00:21:22.908Z,23.81
2017-09-18T00:23:49.147Z,23.63
2017-09-18T00:26:15.366Z,23.59
2017-09-18T00:28:41.543Z,23.43
2017-09-18T00:31:07.709Z,23.37
2017-09-18T00:33:33.947Z,23.27
2017-09-18T00:36:00.191Z,23.20
2017-09-18T00:38:26.441Z,23.20
2017-09-18T00:40:52.758Z,23.19
2017-09-18T00:43:18.981Z,23.11
2017-09-18T00:45:45.192Z,23.00
2017-09-18T00:48:11.426Z,22.90
2017-09-18T00:50:37.670Z,22.84
2017-09-18T00:53:03.895Z,22.89
2017-09-18T00:55:30.118Z,22.87
2017-09-18T00:57:56.357Z,22.86
2017-09-18T01:00:22.570Z,22.93
2017-09-18T01:02:48.753Z,22.92
2017-09-18T01:05:15.052Z,22.95
2017-09-18T01:07:41.266Z,23.02
2017-09-18T01:10:07.503Z,22.95
2017-09-18T01:12:33.730Z,22.94
2017-09-18T01:14:59.958Z,22.92
2017-09-18T01:17:26.189Z,22.85
2017-09-18T01:19:52.422Z,22.88
2017-09-18T01:22:18.645Z,22.88
2017-09-18T01:24:44.885Z,22.77
2017-09-18T01:27:11.119Z,22.76
2017-09-18T01:29:37.333Z,22.76
2017-09-18T01:32:03.567Z,22.76
2017-09-18T01:34:29.788Z,22.74
2017-09-18T01:36:55.970Z,22.70
2017-09-18T01:39:22.241Z,22.67
2017-09-18T01:41:48.482Z,22.68
2017-09-18T01:44:14.702Z,22.61
2017-09-18T01:46:40.946Z,22.60
2017-09-18T01:49:07.180Z,22.56
2017-09-18T01:51:33.396Z,22.45
2017-09-18T01:53:59.625Z,22.48
2017-09-18T01:56:25.866Z,22.43
2017-09-18T01:58:52.046Z,22.40
2017-09-18T02:01:18.321Z,22.37
2017-09-18T02:03:44.479Z,22.27
2017-09-18T02:06:10.670Z,22.26
2017-09-18T02:08:36.901Z,22.25
2017-09-18T02:11:03.141Z,22.20
2017-09-18T02:13:29.377Z,22.22
2017-09-18T02:15:55.592Z,22.22
2017-09-18T02:18:21.820Z,22.14
2017-09-18T02:20:48.058Z,22.10
2017-09-18T02:23:14.288Z,21.93
2017-09-18T02:25:40.503Z,21.87
2017-09-18T02:28:06.740Z,21.87
2017-09-18T02:30:32.979Z,21.83
2017-09-18T02:32:59.202Z,21.80
2017-09-18T02:35:25.437Z,21.77
2017-09-18T02:37:51.654Z,21.78
2017-09-18T02:40:17.894Z,21.74
2017-09-18T02:42:44.139Z,21.72
2017-09-18T02:45:10.358Z,21.64
2017-09-18T02:47:36.570Z,21.62
2017-09-18T02:50:02.809Z,21.60
2017-09-18T02:52:29.044Z,21.63
2017-09-18T02:54:55.280Z,21.64
2017-09-18T02:57:21.519Z,21.63
2017-09-18T02:59:47.739Z,21.55
2017-09-18T03:02:14.490Z,21.62
2017-09-18T03:04:40.706Z,21.60
2017-09-18T03:07:06.936Z,21.53
2017-09-18T03:09:33.160Z,21.49
2017-09-18T03:11:59.398Z,21.53
2017-09-18T03:14:25.623Z,21.48
2017-09-18T03:16:51.851Z,21.40
2017-09-18T03:19:18.083Z,21.37
2017-09-18T03:21:44.319Z,21.34
2017-09-18T03:24:10.555Z,21.35
2017-09-18T03:26:36.759Z,21.35
2017-09-18T03:29:03.003Z,21.33
2017-09-18T03:31:29.233Z,21.34
2017-09-18T03:33:55.447Z,21.30
2017-09-18T03:36:21.689Z,21.32
2017-09-18T03:38:47.914Z,21.31
2017-09-18T03:41:14.077Z,21.27
2017-09-18T03:43:40.267Z,21.26
2017-09-18T03:46:06.506Z,21.24
2017-09-18T03:48:32.725Z,21.25
2017-09-18T03:50:58.964Z,21.23
2017-09-18T03:53:25.190Z,21.20
2017-09-18T03:55:51.453Z,21.16
2017-09-18T03:58:17.665Z,21.15
2017-09-18T04:00:44.162Z,21.07
2017-09-18T04:03:10.438Z,21.02
2017-09-18T04:05:36.650Z,21.02
2017-09-18T04:08:02.884Z,21.01
2017-09-18T04:10:29.102Z,21.03
2017-09-18T04:12:55.327Z,21.02
2017-09-18T04:15:21.584Z,20.98
2017-09-18T04:17:47.817Z,20.91
2017-09-18T04:20:14.020Z,20.98
2017-09-18T04:22:40.271Z,21.00
2017-09-18T04:25:06.486Z,20.92
2017-09-18T04:27:32.709Z,20.94
2017-09-18T04:29:58.953Z,21.02
2017-09-18T04:32:25.183Z,21.11
2017-09-18T04:34:51.368Z,21.18
2017-09-18T04:37:17.643Z,21.48
2017-09-18T04:39:43.859Z,21.92
2017-09-18T04:42:10.085Z,22.26
2017-09-18T04:44:36.354Z,22.57
2017-09-18T04:47:02.562Z,22.95
2017-09-18T04:49:28.793Z,23.09
2017-09-18T04:51:55.060Z,23.48
2017-09-18T04:54:21.364Z,24.07
2017-09-18T04:56:47.579Z,24.63
2017-09-18T04:59:13.910Z,24.93
2017-09-18T05:01:40.148Z,25.04
2017-09-18T05:04:06.356Z,23.80
2017-09-18T05:06:32.590Z,24.14
2017-09-18T05:08:58.819Z,24.20
2017-09-18T05:11:25.058Z,24.45
2017-09-18T05:13:51.274Z,24.89
2017-09-18T05:16:17.515Z,25.47
2017-09-18T05:18:43.758Z,25.76
2017-09-18T05:21:09.986Z,25.95
2017-09-18T05:23:36.212Z,25.79
2017-09-18T05:26:02.437Z,25.22
2017-09-18T05:28:28.664Z,25.92
2017-09-18T05:30:54.902Z,26.70
2017-09-18T05:33:21.123Z,27.02
2017-09-18T05:35:47.349Z,27.01
2017-09-18T05:38:13.586Z,26.73
2017-09-18T05:40:39.822Z,27.44
2017-09-18T05:43:06.038Z,28.02
2017-09-18T05:45:32.265Z,26.87
2017-09-18T05:47:58.500Z,27.43
2017-09-18T05:50:24.742Z,28.19
2017-09-18T05:52:50.954Z,27.91
2017-09-18T05:55:17.186Z,27.29
2017-09-18T05:57:43.427Z,27.67
2017-09-18T06:00:09.657Z,28.00
2017-09-18T06:02:35.882Z,28.45
2017-09-18T06:05:02.101Z,28.47
2017-09-18T06:07:28.347Z,28.25
2017-09-18T06:09:54.665Z,28.09
2017-09-18T06:12:22.656Z,28.19
2017-09-18T06:14:49.387Z,28.75
2017-09-18T06:17:15.616Z,29.18
2017-09-18T06:19:41.862Z,28.89
2017-09-18T06:22:08.072Z,29.01
2017-09-18T06:24:34.293Z,28.53
2017-09-18T06:27:00.482Z,28.86
2017-09-18T06:29:26.802Z,29.47
2017-09-18T06:31:52.967Z,29.77
2017-09-18T06:34:19.230Z,29.83
2017-09-18T06:36:45.459Z,29.90
2017-09-18T06:39:11.787Z,30.45
2017-09-18T06:41:38.007Z,30.71
2017-09-18T06:44:04.243Z,30.63
2017-09-18T06:46:30.470Z,30.17
2017-09-18T06:48:56.701Z,29.26
2017-09-18T06:51:22.936Z,30.13
2017-09-18T06:53:49.174Z,30.77
2017-09-18T06:56:15.332Z,31.04
2017-09-18T06:58:41.574Z,30.58
2017-09-18T07:01:07.721Z,31.63
2017-09-18T07:03:33.881Z,32.07
2017-09-18T07:06:00.053Z,31.80
2017-09-18T07:08:26.220Z,31.99
2017-09-18T07:10:52.386Z,31.38
2017-09-18T07:13:18.539Z,31.15
2017-09-18T07:15:44.690Z,30.95
2017-09-18T07:18:10.845Z,31.00
2017-09-18T07:20:37.002Z,31.55
2017-09-18T07:23:03.172Z,31.50
2017-09-18T07:25:29.357Z,31.86
2017-09-18T07:27:55.530Z,31.89
2017-09-18T07:30:21.687Z,32.00
2017-09-18T07:32:47.866Z,32.23
2017-09-18T07:35:14.029Z,31.82
2017-09-18T07:37:40.186Z,31.77
2017-09-18T07:40:06.367Z,31.66
2017-09-18T07:42:32.542Z,32.06
2017-09-18T07:44:58.704Z,32.85
2017-09-18T07:47:24.883Z,33.21
2017-09-18T07:49:51.048Z,33.28
2017-09-18T07:52:17.206Z,33.57
2017-09-18T07:54:43.380Z,33.39
2017-09-18T07:57:09.547Z,33.29
2017-09-18T07:59:35.701Z,32.86
2017-09-18T08:02:01.861Z,33.37
2017-09-18T08:04:28.016Z,33.49
2017-09-18T08:06:54.184Z,32.89
2017-09-18T08:09:20.365Z,32.92
2017-09-18T08:11:46.559Z,33.05
2017-09-18T08:14:12.765Z,33.19
2017-09-18T08:16:38.944Z,33.37
2017-09-18T08:19:05.110Z,32.96
2017-09-18T08:21:31.277Z,32.99
2017-09-18T08:23:57.453Z,33.32
2017-09-18T08:26:23.616Z,33.14
2017-09-18T08:28:49.792Z,32.89
2017-09-18T08:31:15.959Z,33.41
2017-09-18T08:33:42.115Z,33.41
2017-09-18T08:36:08.266Z,32.38
2017-09-18T08:38:34.441Z,33.02
2017-09-18T08:41:00.605Z,32.45
2017-09-18T08:43:26.828Z,32.69
2017-09-18T08:45:53.071Z,32.98
2017-09-18T08:48:19.237Z,32.51
2017-09-18T08:50:45.425Z,32.67
2017-09-18T08:53:11.665Z,32.87
2017-09-18T08:55:37.876Z,33.60
2017-09-18T08:58:04.058Z,33.29
2017-09-18T09:00:30.227Z,32.46
2017-09-18T09:02:56.447Z,32.03
2017-09-18T09:05:22.702Z,32.42
2017-09-18T09:07:48.927Z,33.06
2017-09-18T09:10:15.151Z,33.08
2017-09-18T09:12:41.376Z,33.98
2017-09-18T09:15:07.533Z,34.32
2017-09-18T09:17:33.737Z,33.47
2017-09-18T09:19:59.913Z,33.65
2017-09-18T09:22:26.096Z,32.99
2017-09-18T09:24:53.378Z,33.35
2017-09-18T09:27:22.003Z,34.08
2017-09-18T09:29:48.266Z,34.13
2017-09-18T09:32:14.516Z,34.21
2017-09-18T09:34:40.710Z,34.35
2017-09-18T09:37:06.962Z,34.55
2017-09-18T09:39:33.179Z,34.55
2017-09-18T09:41:59.420Z,33.90
2017-09-18T09:44:25.645Z,33.49
2017-09-18T09:46:51.878Z,33.24
2017-09-18T09:49:18.119Z,33.14
2017-09-18T09:51:44.327Z,33.76
2017-09-18T09:54:10.558Z,34.15
2017-09-18T09:56:36.797Z,34.78
2017-09-18T09:59:03.030Z,34.69
2017-09-18T10:01:29.267Z,34.84
2017-09-18T10:03:55.473Z,34.50
2017-09-18T10:06:21.709Z,34.30
2017-09-18T10:08:47.950Z,34.21
2017-09-18T10:11:14.167Z,34.64
2017-09-18T10:13:40.349Z,35.43
2017-09-18T10:16:06.534Z,35.50
2017-09-18T10:18:32.767Z,35.28
2017-09-18T10:20:59.012Z,35.36
2017-09-18T10:23:25.184Z,34.33
2017-09-18T10:25:51.557Z,34.58
2017-09-18T10:28:17.787Z,34.64
2017-09-18T10:30:44.013Z,34.54
2017-09-18T10:33:10.262Z,35.02
2017-09-18T10:35:36.485Z,34.81
2017-09-18T10:38:02.701Z,35.02
2017-09-18T10:40:28.927Z,34.81
2017-09-18T10:42:55.164Z,35.12
2017-09-18T10:45:21.403Z,35.76
2017-09-18T10:47:47.608Z,35.30
2017-09-18T10:50:13.843Z,35.35
2017-09-18T10:52:40.059Z,35.60
2017-09-18T10:55:06.307Z,35.52
2017-09-18T10:57:32.533Z,35.94
2017-09-18T10:59:58.707Z,35.55
2017-09-18T11:02:25.008Z,35.15
2017-09-18T11:04:51.235Z,35.74
2017-09-18T11:07:17.475Z,35.17
2017-09-18T11:09:43.697Z,35.36
2017-09-18T11:12:09.919Z,34.92
2017-09-18T11:14:36.138Z,34.59
2017-09-18T11:17:02.385Z,34.09
2017-09-18T11:19:28.596Z,34.50
2017-09-18T11:21:54.838Z,34.22
2017-09-18T11:24:21.083Z,34.48
2017-09-18T11:26:47.288Z,34.88
2017-09-18T11:29:13.525Z,34.60
2017-09-18T11:34:11.315Z,35.33
2017-09-18T11:36:38.502Z,35.25
2017-09-18T11:39:05.305Z,35.72
2017-09-18T11:41:31.585Z,36.31
2017-09-18T11:43:57.867Z,36.69
2017-09-18T11:46:24.082Z,36.51
2017-09-18T11:48:50.327Z,37.06
2017-09-18T11:51:16.542Z,37.24
2017-09-18T11:53:42.790Z,36.96
2017-09-18T11:56:09.009Z,36.53
2017-09-18T11:58:35.246Z,35.67
2017-09-18T12:01:01.475Z,36.19
2017-09-18T12:03:27.690Z,36.06
2017-09-18T12:05:53.954Z,36.06
2017-09-18T12:08:20.164Z,36.45
2017-09-18T12:10:46.395Z,36.94
2017-09-18T12:13:12.635Z,37.22
2017-09-18T12:15:38.894Z,37.90
2017-09-18T12:18:05.094Z,38.12
2017-09-18T12:20:31.263Z,38.08
2017-09-18T12:22:57.444Z,37.34
2017-09-18T12:25:23.688Z,37.73
2017-09-18T12:27:49.899Z,37.66
2017-09-18T12:30:16.133Z,37.89
2017-09-18T12:32:42.358Z,38.10
2017-09-18T12:35:08.588Z,38.35
2017-09-18T12:37:34.830Z,38.43
2017-09-18T12:40:01.045Z,37.16
2017-09-18T12:42:27.268Z,36.93
2017-09-18T12:44:53.509Z,36.96
2017-09-18T12:47:19.745Z,36.38
2017-09-18T12:49:45.953Z,37.09
2017-09-18T12:52:12.193Z,38.01
2017-09-18T12:54:38.430Z,38.71
2017-09-18T12:57:04.683Z,38.53
2017-09-18T12:59:30.891Z,38.41
2017-09-18T13:01:57.114Z,37.76
2017-09-18T13:04:23.353Z,37.25
2017-09-18T13:06:49.587Z,37.65
2017-09-18T13:09:15.816Z,37.22
2017-09-18T13:11:42.025Z,37.73
2017-09-18T13:14:08.248Z,38.88
2017-09-18T13:16:34.424Z,38.55
2017-09-18T13:19:00.614Z,38.54
2017-09-18T13:21:26.849Z,37.90
2017-09-18T13:23:53.067Z,37.29
2017-09-18T13:26:19.301Z,36.59
2017-09-18T13:28:45.545Z,37.13
2017-09-18T13:31:11.772Z,38.14
2017-09-18T13:33:37.994Z,37.58
2017-09-18T13:36:04.229Z,37.34
2017-09-18T13:38:30.580Z,38.00
2017-09-18T13:40:56.900Z,37.88
2017-09-18T13:43:23.082Z,37.55
2017-09-18T13:45:49.426Z,37.59
2017-09-18T13:48:20.669Z,37.59
2017-09-18T13:50:47.442Z,37.29
2017-09-18T13:53:13.681Z,37.88
2017-09-18T13:55:39.895Z,37.20
2017-09-18T13:58:06.142Z,37.19
2017-09-18T14:00:32.356Z,37.16
2017-09-18T14:02:58.544Z,36.97
2017-09-18T14:05:24.722Z,36.86
2017-09-18T14:07:50.898Z,37.65
2017-09-18T14:10:17.083Z,37.51
2017-09-18T14:12:43.245Z,36.86
2017-09-18T14:15:09.444Z,36.32
2017-09-18T14:17:35.635Z,36.16
2017-09-18T14:20:01.792Z,36.78
2017-09-18T14:22:27.962Z,36.75
2017-09-18T14:24:54.135Z,35.74
2017-09-18T14:27:20.312Z,35.92
2017-09-18T14:29:46.464Z,36.36
2017-09-18T14:32:12.632Z,37.06
2017-09-18T14:34:38.811Z,37.70
2017-09-18T14:37:04.993Z,36.95
2017-09-18T14:39:31.163Z,36.52
2017-09-18T14:41:57.327Z,36.67
2017-09-18T14:44:23.493Z,36.80
2017-09-18T14:46:49.673Z,36.70
2017-09-18T14:49:15.844Z,36.71
2017-09-18T14:51:42.016Z,36.52
2017-09-18T14:54:08.182Z,36.24
2017-09-18T14:56:34.352Z,36.34
2017-09-18T14:59:00.534Z,36.38
2017-09-18T15:01:26.713Z,35.60
2017-09-18T15:03:52.891Z,35.71
2017-09-18T15:06:19.090Z,35.68
2017-09-18T15:08:45.287Z,35.56
2017-09-18T15:11:11.459Z,35.85
2017-09-18T15:13:37.680Z,36.11
2017-09-18T15:16:03.872Z,34.90
2017-09-18T15:18:30.051Z,33.81
2017-09-18T15:20:56.214Z,33.53
2017-09-18T15:23:22.368Z,34.13
2017-09-18T15:25:48.534Z,33.61
2017-09-18T15:28:15.748Z,33.30
2017-09-18T15:30:41.910Z,32.99
2017-09-18T15:33:08.082Z,32.60
2017-09-18T15:35:34.254Z,31.68
2017-09-18T15:38:00.415Z,31.36
2017-09-18T15:40:26.588Z,31.18
2017-09-18T15:42:52.749Z,30.64
2017-09-18T15:45:18.921Z,30.38
2017-09-18T15:47:45.091Z,30.17
2017-09-18T15:50:11.258Z,30.05
2017-09-18T15:52:37.412Z,29.77
2017-09-18T15:55:03.581Z,29.67
2017-09-18T15:57:29.746Z,29.60
2017-09-18T15:59:55.920Z,29.46
2017-09-18T16:02:22.080Z,29.31
2017-09-18T16:04:48.249Z,29.18
2017-09-18T16:07:14.439Z,28.97
2017-09-18T16:09:40.606Z,28.90
2017-09-18T16:12:06.787Z,28.76
2017-09-18T16:14:32.939Z,28.66
2017-09-18T16:16:59.117Z,28.58
2017-09-18T16:19:25.275Z,28.45
2017-09-18T16:21:51.435Z,28.28
2017-09-18T16:24:17.580Z,28.06
2017-09-18T16:26:43.744Z,27.85
2017-09-18T16:29:09.951Z,27.63
2017-09-18T16:31:36.127Z,27.63
2017-09-18T16:34:02.284Z,27.47
2017-09-18T16:36:28.460Z,27.35
2017-09-18T16:38:54.632Z,27.26
2017-09-18T16:41:20.881Z,27.20
2017-09-18T16:43:47.049Z,27.00
2017-09-18T16:46:13.265Z,26.91
2017-09-18T16:48:39.451Z,26.82
2017-09-18T16:51:05.680Z,26.78
2017-09-18T16:53:31.838Z,26.64
2017-09-18T16:55:58.012Z,26.55
2017-09-18T16:58:24.300Z,26.47
2017-09-18T17:00:50.497Z,26.42
2017-09-18T17:03:16.756Z,26.17
2017-09-18T17:05:42.938Z,25.94
2017-09-18T17:08:09.179Z,25.85
2017-09-18T17:10:35.397Z,25.66
2017-09-18T17:13:01.633Z,25.53
2017-09-18T17:15:27.795Z,25.56
2017-09-18T17:17:53.983Z,25.45
2017-09-18T17:20:20.236Z,25.50
2017-09-18T17:22:46.471Z,25.49
2017-09-18T17:25:12.682Z,25.36
2017-09-18T17:27:38.905Z,25.35
2017-09-18T17:30:05.060Z,25.43
2017-09-18T17:32:31.272Z,25.31
2017-09-18T17:34:57.607Z,25.23
2017-09-18T17:37:23.768Z,25.28
2017-09-18T17:39:49.942Z,25.17
2017-09-18T17:42:16.183Z,25.04
2017-09-18T17:44:42.438Z,25.00
2017-09-18T17:47:08.651Z,24.99
2017-09-18T17:49:34.795Z,25.10
2017-09-18T17:52:00.996Z,25.21
2017-09-18T17:54:27.238Z,25.25
2017-09-18T17:56:53.485Z,25.28
2017-09-18T17:59:20.729Z,25.33
2017-09-18T18:01:46.953Z,25.31
2017-09-18T18:04:13.175Z,25.32
2017-09-18T18:06:39.414Z,25.35
2017-09-18T18:09:05.607Z,25.35
2017-09-18T18:11:31.975Z,25.35
2017-09-18T18:13:58.202Z,24.96
2017-09-18T18:16:24.445Z,24.58
2017-09-18T18:18:50.666Z,24.40
2017-09-18T18:21:16.883Z,24.37
2017-09-18T18:23:43.128Z,24.27
2017-09-18T18:26:09.278Z,24.11
2017-09-18T18:28:35.445Z,23.88
2017-09-18T18:31:01.716Z,23.57
2017-09-18T18:33:27.928Z,23.57
2017-09-18T18:35:54.157Z,23.63
2017-09-18T18:38:20.413Z,23.45
2017-09-18T18:40:46.559Z,23.19
2017-09-18T18:43:12.744Z,23.02
2017-09-18T18:45:38.987Z,23.08
2017-09-18T18:48:05.315Z,22.99
2017-09-18T18:50:31.498Z,22.96
2017-09-18T18:52:57.783Z,22.95
2017-09-18T18:55:23.952Z,22.90
2017-09-18T18:57:50.126Z,22.93
2017-09-18T19:00:16.307Z,22.98
2017-09-18T19:02:42.473Z,23.03
2017-09-18T19:05:08.733Z,22.71
2017-09-18T19:07:34.962Z,22.68
2017-09-18T19:10:01.169Z,22.59
2017-09-18T19:12:27.350Z,22.45
2017-09-18T19:14:53.654Z,22.24
2017-09-18T19:17:19.861Z,22.13
2017-09-18T19:19:46.086Z,22.19
2017-09-18T19:22:12.333Z,22.06
2017-09-18T19:24:38.554Z,22.05
2017-09-18T19:27:04.802Z,22.07
2017-09-18T19:29:31.017Z,22.12
2017-09-18T19:31:57.241Z,22.06
2017-09-18T19:34:23.482Z,21.95
2017-09-18T19:36:49.701Z,21.89
2017-09-18T19:39:15.934Z,21.93
2017-09-18T19:41:42.170Z,21.97
2017-09-18T19:44:08.376Z,21.92
2017-09-18T19:46:34.584Z,21.85
2017-09-18T19:49:00.896Z,21.84
2017-09-18T19:51:27.085Z,21.80
2017-09-18T19:53:53.314Z,21.82
2017-09-18T19:56:19.528Z,21.80
2017-09-18T19:58:45.763Z,21.63
2017-09-18T20:01:12.014Z,21.54
2017-09-18T20:03:38.239Z,21.47
2017-09-18T20:06:04.470Z,21.49
2017-09-18T20:08:30.689Z,21.49
2017-09-18T20:10:56.931Z,21.35
2017-09-18T20:13:23.166Z,21.34
2017-09-18T20:15:49.382Z,21.29
2017-09-18T20:18:15.604Z,21.15
2017-09-18T20:20:41.906Z,21.14
2017-09-18T20:23:08.173Z,21.06
2017-09-18T20:25:34.402Z,21.03
2017-09-18T20:28:00.628Z,21.08
2017-09-18T20:30:26.867Z,21.10
2017-09-18T20:32:53.091Z,21.18
2017-09-18T20:35:19.308Z,21.29
2017-09-18T20:37:45.544Z,21.29
2017-09-18T20:40:12.602Z,21.23
2017-09-18T20:42:38.823Z,21.12
2017-09-18T20:45:05.059Z,20.80
2017-09-18T20:47:31.324Z,20.72
2017-09-18T20:49:57.526Z,20.60
2017-09-18T20:52:23.746Z,20.44
2017-09-18T20:54:49.977Z,20.38
2017-09-18T20:57:16.213Z,20.32
2017-09-18T20:59:42.450Z,20.28
2017-09-18T21:02:08.665Z,20.24
2017-09-18T21:04:34.892Z,20.26
2017-09-18T21:07:01.120Z,20.26
2017-09-18T21:09:27.343Z,20.24
2017-09-18T21:11:53.572Z,20.26
2017-09-18T21:14:19.810Z,20.46
2017-09-18T21:16:46.045Z,20.67
2017-09-18T21:19:12.277Z,20.72
2017-09-18T21:21:38.493Z,20.79
2017-09-18T21:24:04.718Z,20.70
2017-09-18T21:26:30.959Z,20.70
2017-09-18T21:28:57.186Z,20.63
2017-09-18T21:31:23.420Z,20.50
2017-09-18T21:33:49.657Z,20.46
2017-09-18T21:36:15.866Z,20.34
2017-09-18T21:38:42.135Z,20.21
2017-09-18T21:41:08.349Z,20.14
2017-09-18T21:43:34.582Z,20.02
2017-09-18T21:46:00.834Z,20.04
2017-09-18T21:48:27.030Z,20.10
2017-09-18T21:50:53.255Z,20.17
2017-09-18T21:53:19.501Z,20.26
2017-09-18T21:55:45.721Z,20.29
2017-09-18T21:58:11.950Z,20.32
2017-09-18T22:00:38.193Z,20.04
2017-09-18T22:03:04.408Z,19.82
2017-09-18T22:05:30.644Z,19.60
2017-09-18T22:07:56.878Z,19.43
2017-09-18T22:10:23.098Z,19.42
2017-09-18T22:12:49.347Z,19.42
2017-09-18T22:15:15.558Z,19.44
2017-09-18T22:17:41.731Z,19.29
2017-09-18T22:20:08.016Z,19.28
2017-09-18T22:22:34.256Z,19.23
2017-09-18T22:25:00.476Z,19.17
2017-09-18T22:27:26.708Z,19.07
2017-09-18T22:29:52.940Z,19.03
2017-09-18T22:32:19.162Z,19.05
2017-09-18T22:34:45.409Z,19.08
2017-09-18T22:37:11.625Z,19.03
2017-09-18T22:39:37.857Z,18.97
2017-09-18T22:42:04.089Z,18.84
2017-09-18T22:44:30.318Z,18.76
2017-09-18T22:46:56.547Z,18.74
2017-09-18T22:49:22.776Z,18.79
2017-09-18T22:51:48.953Z,18.80
2017-09-18T22:54:15.239Z,18.82
2017-09-18T22:56:41.461Z,18.77
2017-09-18T22:59:07.691Z,18.68
2017-09-18T23:01:33.908Z,18.58
2017-09-18T23:04:00.149Z,18.57
2017-09-18T23:06:26.382Z,18.46
2017-09-18T23:08:52.616Z,18.50
2017-09-18T23:11:18.843Z,18.52
2017-09-18T23:13:45.070Z,18.58
2017-09-18T23:16:11.286Z,18.57
2017-09-18T23:18:37.440Z,18.57
2017-09-18T23:21:03.647Z,18.50
2017-09-18T23:23:29.875Z,18.44
2017-09-18T23:25:56.117Z,18.49
2017-09-18T23:28:22.340Z,18.46
2017-09-18T23:30:48.585Z,18.36
2017-09-18T23:33:14.795Z,18.33
2017-09-18T23:35:41.021Z,18.29
2017-09-18T23:38:07.250Z,18.18
2017-09-18T23:40:33.493Z,18.12
2017-09-18T23:42:59.713Z,18.01
2017-09-18T23:45:25.944Z,17.90
2017-09-18T23:47:52.192Z,17.93
2017-09-18T23:50:18.416Z,17.87
2017-09-18T23:52:44.643Z,17.82
2017-09-18T23:55:10.859Z,17.80
2017-09-18T23:57:37.094Z,17.70
